LKRK weather

Rakovnik Airfield
Rakovnik, Central Bohemian Region, Czechia

Public forecast

Using degrees Celsius for public forecast. Weather courtesy of forecast.io.

Closest aviation weather report (METAR) to Rakovnik Airfield

Closest report is Václav Havel Airport Prague, 22.0 nm (40.7 km) E. Retrieved 2019/10/19 05:30 UTC (5 minutes ago):

LKPR 190530Z 14007KT CAVOK 10/08 Q1013 NOSIG

Closest aviation forecast (TAF) to Rakovnik Airfield

Closest forecast is Václav Havel Airport Prague, 22.0 nm (40.7 km) E. Retrieved 2019-10-19 00:11 UTC (5 hours ago):

TAF LKPR 182300Z 1900/2006 21008KT CAVOK TEMPO 1902/1908 VRB02KT 2500 BR SCT009